createdAt,value
2022-11-02T00:04:46.028Z,94945.47
2022-11-02T00:09:47.845Z,94955.38
2022-11-02T00:14:49.695Z,94940.56
2022-11-02T00:19:51.747Z,94948.59
2022-11-02T00:24:55.061Z,94946.56
2022-11-02T00:29:57.961Z,94929.84
2022-11-02T00:34:59.771Z,94932.38
2022-11-02T00:40:01.867Z,94913.50
2022-11-02T00:45:05.315Z,94914.44
2022-11-02T00:50:07.733Z,94908.00
2022-11-02T00:55:12.782Z,94908.16
2022-11-02T01:00:17.594Z,94916.97
2022-11-02T01:05:19.595Z,94917.00
2022-11-02T01:10:23.390Z,94923.56
2022-11-02T01:15:25.307Z,94922.16
2022-11-02T01:20:27.298Z,94927.50
2022-11-02T01:26:39.015Z,94922.94
2022-11-02T01:31:40.820Z,94906.72
2022-11-02T01:36:45.583Z,94912.25
2022-11-02T01:41:51.564Z,94910.84
2022-11-02T01:46:55.531Z,94913.97
2022-11-02T01:52:07.516Z,94905.81
2022-11-02T01:57:14.131Z,94902.81
2022-11-02T02:02:21.788Z,94893.84
2022-11-02T02:07:25.249Z,94861.75
2022-11-02T02:12:28.235Z,94892.59
2022-11-02T02:17:49.947Z,94882.03
2022-11-02T02:23:03.731Z,94894.16
2022-11-02T02:28:06.158Z,94900.00
2022-11-02T02:33:14.820Z,94892.28
2022-11-02T02:38:30.973Z,94887.06
2022-11-02T02:43:36.845Z,94903.28
2022-11-02T02:48:41.633Z,94893.38
2022-11-02T02:54:01.735Z,94899.34
2022-11-02T02:59:07.411Z,94888.66
2022-11-02T03:04:12.585Z,94894.16
2022-11-02T03:09:21.076Z,94884.41
2022-11-02T03:14:34.011Z,94896.69
2022-11-02T03:20:24.164Z,94889.28
2022-11-02T03:25:31.834Z,94890.22
2022-11-02T03:30:43.257Z,94889.28
2022-11-02T03:36:56.142Z,94894.66
2022-11-02T03:42:00.094Z,94898.09
2022-11-02T03:47:03.833Z,94897.31
2022-11-02T03:52:10.707Z,94890.06
2022-11-02T03:57:20.876Z,94898.56
2022-11-02T04:02:23.232Z,94900.44
2022-11-02T04:07:27.939Z,94891.78
2022-11-02T04:12:48.745Z,94891.00
2022-11-02T04:18:09.334Z,94879.84
2022-11-02T04:23:29.738Z,94887.53
2022-11-02T04:28:32.302Z,94859.38
2022-11-02T04:33:36.327Z,94877.59
2022-11-02T04:38:46.894Z,94876.34
2022-11-02T04:44:01.017Z,94873.69
2022-11-02T04:49:04.056Z,94871.47
2022-11-02T04:54:07.938Z,94851.63
2022-11-02T04:59:10.046Z,94879.63
2022-11-02T05:04:13.128Z,94876.31
2022-11-02T05:09:15.752Z,94872.81
2022-11-02T05:14:21.440Z,94870.47
2022-11-02T05:20:33.288Z,94875.81
2022-11-02T05:25:35.434Z,94882.53
2022-11-02T05:30:38.584Z,94874.16
2022-11-02T05:35:41.609Z,94854.63
2022-11-02T05:40:43.768Z,94891.59
2022-11-02T05:45:54.723Z,94892.19
2022-11-02T05:50:57.879Z,94894.09
2022-11-02T05:56:05.383Z,94857.25
2022-11-02T06:01:08.501Z,94903.34
2022-11-02T06:06:11.119Z,94905.06
2022-11-02T06:11:14.172Z,94916.81
2022-11-02T06:16:22.414Z,94908.66
2022-11-02T06:21:25.059Z,94896.38
2022-11-02T06:26:26.966Z,94903.47
2022-11-02T06:31:28.786Z,94915.69
2022-11-02T06:36:30.628Z,94914.13
2022-11-02T06:41:32.462Z,94922.16
2022-11-02T06:46:34.547Z,94916.63
2022-11-02T06:51:36.388Z,94922.63
2022-11-02T06:56:38.494Z,94914.56
2022-11-02T07:01:40.594Z,94925.78
2022-11-02T07:06:42.579Z,94929.38
2022-11-02T07:11:44.442Z,94938.53
2022-11-02T07:16:46.567Z,94956.78
2022-11-02T07:21:48.446Z,94958.38
2022-11-02T07:26:51.688Z,94949.63
2022-11-02T07:31:53.598Z,94958.44
2022-11-02T07:36:55.747Z,94959.88
2022-11-02T07:41:57.615Z,94959.25
2022-11-02T07:47:01.557Z,94924.75
2022-11-02T07:52:03.516Z,94929.84
2022-11-02T07:57:06.869Z,94930.03
2022-11-02T08:02:11.617Z,94980.25
2022-11-02T08:07:13.617Z,94988.75
2022-11-02T08:12:15.466Z,94998.81
2022-11-02T08:17:17.649Z,94986.25
2022-11-02T08:22:19.524Z,94991.34
2022-11-02T08:27:21.438Z,94992.78
2022-11-02T08:32:23.276Z,94993.09
2022-11-02T08:37:25.402Z,95010.28
2022-11-02T08:42:27.260Z,94999.75
2022-11-02T08:47:29.288Z,94998.34
2022-11-02T08:52:40.369Z,94996.56
2022-11-02T08:57:51.646Z,94975.13
2022-11-02T09:03:10.720Z,94995.06
2022-11-02T09:08:20.272Z,94994.69
2022-11-02T09:13:25.794Z,94992.69
2022-11-02T09:18:27.899Z,94975.03
2022-11-02T09:23:29.793Z,94970.34
2022-11-02T09:29:47.859Z,94958.94
2022-11-02T09:34:50.707Z,94969.84
2022-11-02T09:39:52.574Z,94967.34
2022-11-02T09:45:28.084Z,94970.25
2022-11-02T09:50:57.734Z,94977.69
2022-11-02T09:56:05.432Z,94969.31
2022-11-02T10:01:25.129Z,94929.53
2022-11-02T10:06:27.425Z,94923.53
2022-11-02T10:16:50.905Z,94901.59
2022-11-02T10:21:57.153Z,94936.63
2022-11-02T10:27:07.946Z,94930.97
2022-11-02T10:32:13.348Z,94924.81
2022-11-02T10:37:18.207Z,94905.41
2022-11-02T10:42:32.178Z,94914.34
2022-11-02T10:47:41.958Z,94911.13
2022-11-02T10:52:45.473Z,94909.66
2022-11-02T11:04:39.617Z,94890.25
2022-11-02T11:09:51.102Z,94896.53
2022-11-02T11:20:33.580Z,94894.66
2022-11-02T11:25:35.596Z,94872.25
2022-11-02T11:30:58.948Z,94870.56
2022-11-02T11:36:01.073Z,94868.91
2022-11-02T11:41:04.304Z,94847.13
2022-11-02T11:46:08.120Z,94844.03
2022-11-02T11:51:25.374Z,94838.81
2022-11-02T11:56:35.212Z,94837.66
2022-11-02T12:01:40.412Z,94834.63
2022-11-02T12:06:46.769Z,94793.97
2022-11-02T12:12:01.698Z,94812.81
2022-11-02T12:17:09.742Z,94769.78
2022-11-02T12:22:16.040Z,94797.97
2022-11-02T12:27:43.693Z,94800.91
2022-11-02T12:32:57.502Z,94787.09
2022-11-02T12:38:21.862Z,94775.94
2022-11-02T12:43:30.009Z,94755.50
2022-11-02T12:48:39.420Z,94731.94
2022-11-02T12:54:03.133Z,94727.94
2022-11-02T12:59:05.148Z,94721.50
2022-11-02T13:04:15.466Z,94711.81
2022-11-02T13:09:17.301Z,94720.09
2022-11-02T13:14:22.748Z,94703.03
2022-11-02T13:19:35.301Z,94712.56
2022-11-02T13:24:43.629Z,94701.69
2022-11-02T13:29:47.748Z,94670.63
2022-11-02T13:34:50.988Z,94690.44
2022-11-02T13:39:55.878Z,94649.28
2022-11-02T13:45:15.008Z,94641.31
2022-11-02T13:50:19.747Z,94653.59
2022-11-02T13:55:45.565Z,94653.78
2022-11-02T14:00:48.110Z,94653.56
2022-11-02T14:06:01.372Z,94637.53
2022-11-02T14:11:37.343Z,94616.78
2022-11-02T14:16:46.422Z,94633.13
2022-11-02T14:21:48.257Z,94615.75
2022-11-02T14:26:57.401Z,94593.50
2022-11-02T14:32:03.342Z,94618.44
2022-11-02T14:37:21.517Z,94623.78
2022-11-02T14:42:41.766Z,94625.31
2022-11-02T14:47:43.929Z,94616.84
2022-11-02T14:53:00.167Z,94618.63
2022-11-02T14:58:09.554Z,94608.31
2022-11-02T15:03:26.642Z,94600.94
2022-11-02T15:08:31.838Z,94602.16
2022-11-02T15:13:36.262Z,94603.59
2022-11-02T15:18:39.097Z,94605.59
2022-11-02T15:23:47.045Z,94610.53
2022-11-02T15:28:49.787Z,94608.69
2022-11-02T15:33:55.171Z,94605.94
2022-11-02T15:38:57.463Z,94587.88
2022-11-02T15:44:23.370Z,94609.22
2022-11-02T15:50:23.616Z,94610.34
2022-11-02T15:55:48.256Z,94615.47
2022-11-02T16:01:12.111Z,94614.63
2022-11-02T16:06:14.360Z,94618.88
2022-11-02T16:11:20.928Z,94625.75
2022-11-02T16:16:22.962Z,94609.38
2022-11-02T16:21:24.930Z,94598.06
2022-11-02T16:26:28.848Z,94591.03
2022-11-02T16:31:33.813Z,94580.00
2022-11-02T16:36:37.022Z,94587.59
2022-11-02T16:41:39.168Z,94594.34
2022-11-02T16:46:48.036Z,94591.38
2022-11-02T16:51:54.859Z,94598.28
2022-11-02T16:57:00.460Z,94603.16
2022-11-02T17:02:03.656Z,94585.19
2022-11-02T17:07:13.562Z,94612.53
2022-11-02T17:12:18.128Z,94608.44
2022-11-02T17:17:25.961Z,94574.59
2022-11-02T17:22:29.429Z,94610.13
2022-11-02T17:27:37.631Z,94608.78
2022-11-02T17:32:43.463Z,94614.97
2022-11-02T17:37:45.554Z,94613.19
2022-11-02T17:43:01.499Z,94605.56
2022-11-02T17:48:05.219Z,94614.09
2022-11-02T17:53:09.868Z,94625.16
2022-11-02T17:58:13.805Z,94622.28
2022-11-02T18:03:16.928Z,94621.41
2022-11-02T18:08:19.418Z,94593.91
2022-11-02T18:13:22.939Z,94619.16
2022-11-02T18:18:24.869Z,94612.84
2022-11-02T18:23:27.406Z,94608.63
2022-11-02T18:28:29.254Z,94606.97
2022-11-02T18:33:31.284Z,94608.78
2022-11-02T18:38:33.447Z,94609.50
2022-11-02T18:43:37.425Z,94581.84
2022-11-02T18:48:39.629Z,94622.38
2022-11-02T18:53:41.676Z,94623.09
2022-11-02T18:58:43.792Z,94623.41
2022-11-02T19:03:54.725Z,94619.31
2022-11-02T19:09:14.953Z,94623.69
2022-11-02T19:14:17.197Z,94612.72
2022-11-02T19:19:19.014Z,94623.59
2022-11-02T19:24:24.006Z,94631.66
2022-11-02T19:29:25.950Z,94618.22
2022-11-02T19:34:28.007Z,94620.31
2022-11-02T19:39:30.365Z,94607.28
2022-11-02T19:44:32.297Z,94593.75
2022-11-02T19:49:34.124Z,94605.25
2022-11-02T19:54:36.285Z,94592.94
2022-11-02T19:59:38.154Z,94587.97
2022-11-02T20:04:42.506Z,94584.59
2022-11-02T20:09:45.082Z,94586.25
2022-11-02T20:14:46.964Z,94587.47
2022-11-02T20:19:48.843Z,94574.34
2022-11-02T20:24:50.760Z,94582.31
2022-11-02T20:29:52.690Z,94568.34
2022-11-02T20:34:54.687Z,94564.09
2022-11-02T20:39:56.616Z,94564.59
2022-11-02T20:44:58.465Z,94576.53
2022-11-02T20:50:00.839Z,94580.31
2022-11-02T20:55:02.726Z,94584.59
2022-11-02T21:00:06.389Z,94588.88
2022-11-02T21:05:09.186Z,94590.34
2022-11-02T21:10:14.138Z,94568.75
2022-11-02T21:15:16.345Z,94568.53
2022-11-02T21:20:34.942Z,94566.63
2022-11-02T21:25:37.759Z,94572.81
2022-11-02T21:30:39.548Z,94570.59
2022-11-02T21:35:41.456Z,94577.63
2022-11-02T21:40:43.424Z,94559.19
2022-11-02T21:45:56.025Z,94561.56
2022-11-02T21:51:06.853Z,94563.91
2022-11-02T21:56:09.835Z,94570.84
2022-11-02T22:01:36.126Z,94567.59
2022-11-02T22:06:38.905Z,94567.38
2022-11-02T22:11:41.395Z,94572.63
2022-11-02T22:16:43.992Z,94571.84
2022-11-02T22:21:46.200Z,94572.19
2022-11-02T22:26:50.261Z,94563.03
2022-11-02T22:31:52.346Z,94562.91
2022-11-02T22:37:14.232Z,94557.44
2022-11-02T22:42:16.178Z,94566.69
2022-11-02T22:47:18.003Z,94546.81
2022-11-02T22:52:19.800Z,94550.94
2022-11-02T22:57:21.898Z,94548.25
2022-11-02T23:02:23.968Z,94529.16
2022-11-02T23:07:25.982Z,94538.84
2022-11-02T23:12:27.862Z,94527.66
2022-11-02T23:17:29.817Z,94524.41
2022-11-02T23:22:32.536Z,94528.09
2022-11-02T23:27:59.505Z,94529.06
2022-11-02T23:33:01.310Z,94527.41
2022-11-02T23:38:05.308Z,94530.09
2022-11-02T23:43:08.501Z,94521.72
2022-11-02T23:48:11.011Z,94532.44
2022-11-02T23:53:33.180Z,94529.88
2022-11-02T23:58:35.030Z,94524.97
